Flight Track Log - Related Links

Times and Time Zones

All times are in EDT time to prevent confusion due to time zone crossing. See the N103BL flight status page for this flight to view local times or setup timezone preferences in your user account.

Time Position Orientation Groundspeed Altitude Reporting Facility
EDT Latitude Longitude Course Direction KTS MPH feet Rate Location/Type
Mon 12:37:00 PM 33.7322 -80.2837 166° South  Level Estimated
Mon 12:38:00 PM 33.6886 -80.2697 165° South  Level FlightAware Approximate
Mon 12:39:00 PM 33.6450 -80.2557 165° South  Level FlightAware Approximate
Mon 12:40:00 PM 33.6014 -80.2417 165° South  Level FlightAware Approximate
Mon 12:41:00 PM 33.5578 -80.2277 165° South  Level FlightAware Approximate
Mon 12:42:00 PM 33.5143 -80.2138 165° South  Level FlightAware Approximate
Mon 12:43:00 PM 33.4707 -80.1999 165° South  Level FlightAware Approximate
Mon 12:44:00 PM 33.4271 -80.1859 165° South  Level FlightAware Approximate
Mon 12:45:00 PM 33.3835 -80.1720 165° South  Level FlightAware Approximate
Mon 12:46:00 PM 33.3395 -80.1600 167° South  Level Estimated
Mon 12:47:00 PM 33.2957 -80.1473 166° South  Level FlightAware Approximate
Mon 12:48:00 PM 33.2519 -80.1345 166° South  Level FlightAware Approximate
Mon 12:49:00 PM 33.2080 -80.1217 166° South  Level FlightAware Approximate
Mon 12:50:00 PM 33.1642 -80.1090 166° South  Level FlightAware Approximate
Mon 12:51:00 PM 33.1201 -80.0976 170° South  Level Estimated
Mon 12:52:00 PM 33.0757 -80.0885 170° South  Level FlightAware Approximate
Mon 12:53:00 PM 33.0317 -80.0766 161° South  Level Estimated
Mon 12:54:00 PM 32.9890 -80.0591 161° South  Level FlightAware Approximate
Mon 12:55:00 PM 32.9446 -80.0500 170° South  Level Estimated
Mon 12:56:00 PM 32.9006 -80.0380 167° South  Level FlightAware Approximate
Mon 12:57:00 PM 32.8986 -80.0405 170° South  Level Estimated
Mon 12:58:00 PM 32.8986 -80.0405 170° South  Level Estimated
Mon 12:59:00 PM 32.8986 -80.0405 170° South  Level Estimated
Mon 01:00:00 PM 32.8986 -80.0405 170° South  Level Estimated
Mon 01:01:00 PM 32.8986 -80.0405 170° South  Level Estimated
Mon 01:02:00 PM 32.8986 -80.0405 170° South  Level Estimated
Mon 01:03:00 PM 32.8986 -80.0405 170° South  Level Estimated
Mon 01:04:00 PM 32.8986 -80.0405 170° South  Level Estimated
Mon 01:05:00 PM 32.8986 -80.0405 170° South  Level Estimated
Mon 01:06:00 PM 32.8986 -80.0405 170° South  Level Estimated
Mon 01:07:00 PM 32.8986 -80.0405 170° South  Level Estimated
Mon 01:08:00 PM 32.8986 -80.0405 170° South  Level Estimated
Mon 01:09:00 PM 32.8986 -80.0405 170° South  Level Estimated

Login

Don't have an account? Register now (free) for customized features, flight alerts, and more!